Time;durP1;ratioP1;P1;durP2;ratioP2;P2;SDS_P1;SDS_P2;PMS_P1;PMS_P2;Temp;Humidity;BMP_temperature;BMP_pressure;BME280_temperature;BME280_humidity;BME280_pressure;Samples;Min_cycle;Max_cycle;Signal;HPM_P1;HPM_P2
2022/05/21 00:00:48;;;;;;;;;;;;;;;;;;5092571;28;19915;-76
2022/05/21 00:03:35;;;;;;;;;;;;;;;;;;5095719;28;19912;-78
2022/05/21 00:06:21;;;;;;;;;;;;;;;;;;5087495;28;20276;-78
2022/05/21 00:09:08;;;;;;;;;;;;;;;;;;5086451;28;19917;-77
2022/05/21 00:11:54;;;;;;;;;;;;;;;;;;5092413;28;19920;-78
2022/05/21 00:14:44;;;;;;;;;;;;;;;;;;5087870;28;19939;-77
2022/05/21 00:17:31;;;;;;;;;;;;;;;;;;5089556;28;19943;-77
2022/05/21 00:23:23;;;;;;;;;;;;;;;;;;5084552;28;20379;-76
2022/05/21 00:26:10;;;;;;;;;;;;;;;;;;5092740;28;19912;-75
2022/05/21 00:28:56;;;;;;;;;;;;;;;;;;5091024;28;19920;-77
2022/05/21 00:31:43;;;;;;;;;;;;;;;;;;5080275;28;19912;-77
2022/05/21 00:34:29;;;;;;;;;;;;;;;;;;5088901;28;19923;-77
2022/05/21 00:37:16;;;;;;;;;;;;;;;;;;5091658;28;19919;-75
2022/05/21 00:40:02;;;;;;;;;;;;;;;;;;5085473;28;19909;-76
2022/05/21 00:42:49;;;;;;;;;;;;;;;;;;5087029;28;20256;-77
2022/05/21 00:45:35;;;;;;;;;;;;;;;;;;5086605;28;19912;-79
2022/05/21 00:48:22;;;;;;;;;;;;;;;;;;5087018;28;19908;-75
2022/05/21 00:51:08;;;;;;;;;;;;;;;;;;5089511;28;19920;-76
2022/05/21 00:53:55;;;;;;;;;;;;;;;;;;5085488;28;19909;-76
2022/05/21 00:56:41;;;;;;;;;;;;;;;;;;5088164;28;19915;-77
2022/05/21 01:02:33;;;;;;;;;;;;;;;;;;5090170;28;19934;-77
2022/05/21 01:05:19;;;;;;;;;;;;;;;;;;5094226;28;20461;-76
2022/05/21 01:08:06;;;;;;;;;;;;;;;;;;5088386;28;19912;-77
2022/05/21 01:10:52;;;;;;;;;;;;;;;;;;5090779;28;20422;-77
2022/05/21 01:13:39;;;;;;;;;;;;;;;;;;5087668;28;19909;-77
2022/05/21 01:16:25;;;;;;;;;;;;;;;;;;5093113;28;19912;-76
2022/05/21 01:19:12;;;;;;;;;;;;;;;;;;5089565;28;19909;-77
2022/05/21 01:21:59;;;;;;;;;;;;;;;;;;5092058;28;19908;-77
2022/05/21 01:24:45;;;;;;;;;;;;;;;;;;5091801;28;19908;-76
2022/05/21 01:27:32;;;;;;;;;;;;;;;;;;5090703;28;19912;-77
2022/05/21 01:30:18;;;;;;;;;;;;;;;;;;5091015;28;19920;-77
2022/05/21 01:33:05;;;;;;;;;;;;;;;;;;5085875;28;20614;-77
2022/05/21 01:35:51;;;;;;;;;;;;;;;;;;5065003;28;20391;-75
2022/05/21 01:38:38;;;;;;;;;;;;;;;;;;5101499;28;19907;-76
2022/05/21 01:41:24;;;;;;;;;;;;;;;;;;5090066;28;19910;-77
2022/05/21 01:47:29;;;;;;;;;;;;;;;;;;5062809;28;19915;-76
2022/05/21 01:50:16;;;;;;;;;;;;;;;;;;5090908;28;19927;-76
2022/05/21 01:53:02;;;;;;;;;;;;;;;;;;5089771;28;19908;-76
2022/05/21 01:55:49;;;;;;;;;;;;;;;;;;5087849;28;19915;-76
2022/05/21 01:58:35;;;;;;;;;;;;;;;;;;5078772;28;19927;-76
2022/05/21 02:01:22;;;;;;;;;;;;;;;;;;5093586;28;19919;-76
2022/05/21 02:04:08;;;;;;;;;;;;;;;;;;5089095;28;19931;-76
2022/05/21 02:06:55;;;;;;;;;;;;;;;;;;5088684;28;20222;-76
2022/05/21 02:09:41;;;;;;;;;;;;;;;;;;5079449;28;19916;-76
2022/05/21 02:12:28;;;;;;;;;;;;;;;;;;5075315;28;19909;-78
2022/05/21 02:15:14;;;;;;;;;;;;;;;;;;5091593;28;19914;-76
2022/05/21 02:18:01;;;;;;;;;;;;;;;;;;5088713;28;19912;-76
2022/05/21 02:20:48;;;;;;;;;;;;;;;;;;5090113;28;20288;-76
2022/05/21 02:23:34;;;;;;;;;;;;;;;;;;5102591;28;19914;-76
2022/05/21 02:26:21;;;;;;;;;;;;;;;;;;5088054;28;19916;-75
2022/05/21 02:29:07;;;;;;;;;;;;;;;;;;5089211;28;20336;-76
2022/05/21 02:31:54;;;;;;;;;;;;;;;;;;5088268;28;19916;-75
2022/05/21 02:34:40;;;;;;;;;;;;;;;;;;5088485;28;19923;-75
2022/05/21 02:40:32;;;;;;;;;;;;;;;;;;5089169;28;19914;-76
2022/05/21 02:43:19;;;;;;;;;;;;;;;;;;5081673;28;19918;-76
2022/05/21 02:46:05;;;;;;;;;;;;;;;;;;5076854;28;19912;-76
2022/05/21 02:48:52;;;;;;;;;;;;;;;;;;5092644;28;19914;-75
2022/05/21 02:51:38;;;;;;;;;;;;;;;;;;5084511;28;19920;-76
2022/05/21 02:54:24;;;;;;;;;;;;;;;;;;5090195;28;19913;-76
2022/05/21 02:57:11;;;;;;;;;;;;;;;;;;5109032;28;20382;-77
2022/05/21 02:59:57;;;;;;;;;;;;;;;;;;5085281;28;19908;-76
2022/05/21 03:02:44;;;;;;;;;;;;;;;;;;5085071;28;19913;-76
2022/05/21 03:05:31;;;;;;;;;;;;;;;;;;5102038;28;19922;-76
2022/05/21 03:11:23;;;;;;;;;;;;;;;;;;5087740;28;19916;-77
2022/05/21 03:14:09;;;;;;;;;;;;;;;;;;5101799;28;19908;-77
2022/05/21 03:16:59;;;;;;;;;;;;;;;;;;5088175;28;19920;-76
2022/05/21 03:19:46;;;;;;;;;;;;;;;;;;5099180;28;20316;-76
2022/05/21 03:22:32;;;;;;;;;;;;;;;;;;5083257;28;20369;-76
2022/05/21 03:25:19;;;;;;;;;;;;;;;;;;5077549;28;19918;-76
2022/05/21 03:28:05;;;;;;;;;;;;;;;;;;5085711;28;20296;-77
2022/05/21 03:30:52;;;;;;;;;;;;;;;;;;5088839;28;19917;-76
2022/05/21 03:33:38;;;;;;;;;;;;;;;;;;5078990;28;19913;-77
2022/05/21 03:36:25;;;;;;;;;;;;;;;;;;5091513;28;19908;-77
2022/05/21 03:39:11;;;;;;;;;;;;;;;;;;5088181;28;20268;-76
2022/05/21 03:41:58;;;;;;;;;;;;;;;;;;5087994;28;19909;-76
2022/05/21 03:44:46;;;;;;;;;;;;;;;;;;5091320;28;19916;-76
2022/05/21 03:47:32;;;;;;;;;;;;;;;;;;5101440;28;19934;-77
2022/05/21 03:50:19;;;;;;;;;;;;;;;;;;5090298;28;20365;-76
2022/05/21 03:53:06;;;;;;;;;;;;;;;;;;5102297;28;20291;-77
2022/05/21 03:55:53;;;;;;;;;;;;;;;;;;5090138;28;19912;-77
2022/05/21 03:58:40;;;;;;;;;;;;;;;;;;5099147;28;19912;-76
2022/05/21 04:01:26;;;;;;;;;;;;;;;;;;5091079;28;19944;-77
2022/05/21 04:04:13;;;;;;;;;;;;;;;;;;5109753;27;19914;-76
2022/05/21 04:06:59;;;;;;;;;;;;;;;;;;5084576;28;19915;-76
2022/05/21 04:09:45;;;;;;;;;;;;;;;;;;5107896;28;19927;-77
2022/05/21 04:12:32;;;;;;;;;;;;;;;;;;5091904;28;19909;-78
2022/05/21 04:15:18;;;;;;;;;;;;;;;;;;5088579;28;19916;-77
2022/05/21 04:18:05;;;;;;;;;;;;;;;;;;5091914;28;19938;-77
2022/05/21 04:20:51;;;;;;;;;;;;;;;;;;5092721;28;20371;-78
2022/05/21 04:23:41;;;;;;;;;;;;;;;;;;5089818;28;19908;-78
2022/05/21 04:26:40;;;;;;;;;;;;;;;;;;;;;
2022/05/21 04:29:27;;;;;;;;;;;;;;;;;;5092223;28;20390;-77
2022/05/21 04:32:14;;;;;;;;;;;;;;;;;;5092794;28;19909;-78
2022/05/21 04:35:08;;;;;;;;;;;;;;;;;;5104995;28;19922;-78
2022/05/21 04:37:55;;;;;;;;;;;;;;;;;;5074300;28;20390;-77
2022/05/21 04:40:42;;;;;;;;;;;;;;;;;;5091001;28;19916;-78
2022/05/21 04:43:28;;;;;;;;;;;;;;;;;;5099505;28;19912;-76
2022/05/21 04:46:23;;;;;;;;;;;;;;;;;;5088436;28;19908;-77
2022/05/21 04:49:09;;;;;;;;;;;;;;;;;;5104439;28;19908;-76
2022/05/21 04:51:56;;;;;;;;;;;;;;;;;;5099466;28;19919;-77
2022/05/21 04:54:42;;;;;;;;;;;;;;;;;;5084543;28;19916;-78
2022/05/21 04:57:29;;;;;;;;;;;;;;;;;;5090525;28;19920;-76
2022/05/21 05:00:16;;;;;;;;;;;;;;;;;;5105453;27;19912;-77
2022/05/21 05:03:02;;;;;;;;;;;;;;;;;;5103526;28;19916;-78
2022/05/21 05:05:49;;;;;;;;;;;;;;;;;;5091994;28;19920;-78
2022/05/21 05:08:36;;;;;;;;;;;;;;;;;;5105367;28;20382;-77
2022/05/21 05:11:23;;;;;;;;;;;;;;;;;;5105365;27;19926;-78
2022/05/21 05:14:10;;;;;;;;;;;;;;;;;;5087692;28;20267;-77
2022/05/21 05:16:56;;;;;;;;;;;;;;;;;;5090452;28;19958;-78
2022/05/21 05:19:43;;;;;;;;;;;;;;;;;;5091702;28;19916;-79
2022/05/21 05:22:37;;;;;;;;;;;;;;;;;;5088228;28;19919;-78
2022/05/21 05:25:23;;;;;;;;;;;;;;;;;;5090554;28;19919;-76
2022/05/21 05:28:10;;;;;;;;;;;;;;;;;;5084621;28;20598;-77
2022/05/21 05:30:56;;;;;;;;;;;;;;;;;;5087904;28;19920;-76
2022/05/21 05:33:43;;;;;;;;;;;;;;;;;;5092168;28;20364;-76
2022/05/21 05:36:29;;;;;;;;;;;;;;;;;;5083272;28;20296;-76
2022/05/21 05:39:16;;;;;;;;;;;;;;;;;;5101864;27;19982;-75
2022/05/21 05:42:04;;;;;;;;;;;;;;;;;;5089855;28;19916;-75
2022/05/21 05:44:50;;;;;;;;;;;;;;;;;;5089660;28;20505;-75
2022/05/21 05:47:37;;;;;;;;;;;;;;;;;;5088480;28;19915;-75
2022/05/21 05:50:23;;;;;;;;;;;;;;;;;;5087899;28;20399;-76
2022/05/21 05:53:10;;;;;;;;;;;;;;;;;;5086953;28;19912;-76
2022/05/21 05:55:56;;;;;;;;;;;;;;;;;;5087265;28;19912;-77
2022/05/21 06:01:48;;;;;;;;;;;;;;;;;;5087755;28;19919;-77
2022/05/21 06:04:34;;;;;;;;;;;;;;;;;;5073753;28;19919;-77
2022/05/21 06:07:20;;;;;;;;;;;;;;;;;;5087852;28;19916;-77
2022/05/21 06:10:07;;;;;;;;;;;;;;;;;;5086673;28;20540;-77
2022/05/21 06:12:53;;;;;;;;;;;;;;;;;;5087741;28;19908;-77
2022/05/21 06:15:40;;;;;;;;;;;;;;;;;;5087512;28;20435;-77
2022/05/21 06:18:26;;;;;;;;;;;;;;;;;;5093592;28;19912;-77
2022/05/21 06:21:13;;;;;;;;;;;;;;;;;;5100768;27;20394;-78
2022/05/21 06:23:59;;;;;;;;;;;;;;;;;;5084531;28;19919;-78
2022/05/21 06:26:46;;;;;;;;;;;;;;;;;;5100563;28;20360;-77
2022/05/21 06:29:32;;;;;;;;;;;;;;;;;;5082676;28;19920;-76
2022/05/21 06:32:19;;;;;;;;;;;;;;;;;;5090291;28;19912;-75
2022/05/21 06:35:05;;;;;;;;;;;;;;;;;;5080730;28;20264;-76
2022/05/21 06:37:52;;;;;;;;;;;;;;;;;;5086736;28;19920;-77
2022/05/21 06:40:38;;;;;;;;;;;;;;;;;;5082582;28;19916;-78
2022/05/21 06:43:25;;;;;;;;;;;;;;;;;;5081519;28;20505;-75
2022/05/21 06:46:11;;;;;;;;;;;;;;;;;;5079877;28;19931;-77
2022/05/21 06:48:58;;;;;;;;;;;;;;;;;;5087125;28;20309;-76
2022/05/21 06:51:44;;;;;;;;;;;;;;;;;;5081399;28;19928;-77
2022/05/21 06:54:31;;;;;;;;;;;;;;;;;;5083423;28;20132;-77
2022/05/21 06:57:17;;;;;;;;;;;;;;;;;;5083974;28;19915;-76
2022/05/21 07:00:04;;;;;;;;;;;;;;;;;;5081703;28;19920;-76
2022/05/21 07:02:50;;;;;;;;;;;;;;;;;;5081086;28;19916;-78
2022/05/21 07:08:42;;;;;;;;;;;;;;;;;;5080976;28;19913;-80
2022/05/21 07:11:29;;;;;;;;;;;;;;;;;;5087198;28;19920;-78
2022/05/21 07:14:15;;;;;;;;;;;;;;;;;;5091827;28;20277;-78
2022/05/21 07:17:02;;;;;;;;;;;;;;;;;;5096398;28;19916;-79
2022/05/21 07:19:48;;;;;;;;;;;;;;;;;;5079875;28;19950;-79
2022/05/21 07:22:35;;;;;;;;;;;;;;;;;;5082042;28;19934;-79
2022/05/21 07:25:21;;;;;;;;;;;;;;;;;;5085799;28;19920;-80
2022/05/21 07:28:08;;;;;;;;;;;;;;;;;;5095336;28;19916;-79
2022/05/21 07:30:54;;;;;;;;;;;;;;;;;;5086793;28;20300;-77
2022/05/21 07:33:41;;;;;;;;;;;;;;;;;;5087717;28;19918;-77
2022/05/21 07:36:27;;;;;;;;;;;;;;;;;;5106327;28;20363;-86
2022/05/21 07:39:14;;;;;;;;;;;;;;;;;;5106129;28;20914;-80
2022/05/21 07:42:01;;;;;;;;;;;;;;;;;;5092754;28;19912;-82
2022/05/21 07:44:47;;;;;;;;;;;;;;;;;;5092397;28;19963;-81
2022/05/21 07:47:34;;;;;;;;;;;;;;;;;;5090184;28;19908;-79
2022/05/21 07:50:22;;;;;;;;;;;;;;;;;;5082534;28;20374;-78
2022/05/21 07:53:09;;;;;;;;;;;;;;;;;;5107662;27;19912;-83
2022/05/21 07:55:55;;;;;;;;;;;;;;;;;;5083561;28;20513;-79
2022/05/21 07:58:42;;;;;;;;;;;;;;;;;;5081428;28;19918;-79
2022/05/21 08:01:29;;;;;;;;;;;;;;;;;;5083039;28;19912;-79
2022/05/21 08:04:17;;;;;;;;;;;;;;;;;;5081793;28;20695;-79
2022/05/21 08:07:03;;;;;;;;;;;;;;;;;;5088703;28;19914;-79
2022/05/21 08:09:50;;;;;;;;;;;;;;;;;;5084276;28;20399;-79
2022/05/21 08:12:36;;;;;;;;;;;;;;;;;;5085786;28;19908;-79
2022/05/21 08:15:22;;;;;;;;;;;;;;;;;;5084076;28;19912;-78
2022/05/21 08:18:09;;;;;;;;;;;;;;;;;;5082957;28;19923;-80
2022/05/21 08:20:55;;;;;;;;;;;;;;;;;;5082836;28;19967;-78
2022/05/21 08:26:57;;;;;;;;;;;;;;;;;;5091364;28;19908;-80
2022/05/21 08:29:43;;;;;;;;;;;;;;;;;;5083074;28;19920;-80
2022/05/21 08:32:30;;;;;;;;;;;;;;;;;;5092243;28;19915;-80
2022/05/21 08:35:16;;;;;;;;;;;;;;;;;;5091879;28;19908;-80
2022/05/21 08:38:03;;;;;;;;;;;;;;;;;;5084317;28;19915;-79
2022/05/21 08:40:49;;;;;;;;;;;;;;;;;;5090682;28;19912;-79
2022/05/21 08:43:36;;;;;;;;;;;;;;;;;;5092309;28;19916;-80
2022/05/21 08:46:22;;;;;;;;;;;;;;;;;;5091004;28;19978;-79
2022/05/21 08:49:09;;;;;;;;;;;;;;;;;;5092067;28;19912;-78
2022/05/21 08:51:56;;;;;;;;;;;;;;;;;;5082855;28;20579;-79
2022/05/21 08:54:43;;;;;;;;;;;;;;;;;;5093135;28;19912;-80
2022/05/21 08:57:29;;;;;;;;;;;;;;;;;;5093016;28;19908;-80
2022/05/21 09:00:16;;;;;;;;;;;;;;;;;;5093621;28;20637;-80
2022/05/21 09:03:02;;;;;;;;;;;;;;;;;;5093552;28;19916;-79
2022/05/21 09:05:49;;;;;;;;;;;;;;;;;;5092716;28;20271;-79
2022/05/21 09:08:36;;;;;;;;;;;;;;;;;;5093131;28;20327;-79
2022/05/21 09:11:22;;;;;;;;;;;;;;;;;;5105517;28;19919;-80
2022/05/21 09:14:09;;;;;;;;;;;;;;;;;;5113957;27;20299;-80
2022/05/21 09:16:55;;;;;;;;;;;;;;;;;;5091247;28;20465;-79
2022/05/21 09:19:42;;;;;;;;;;;;;;;;;;5091052;28;19916;-80
2022/05/21 09:22:28;;;;;;;;;;;;;;;;;;5073793;28;19909;-79
2022/05/21 09:25:15;;;;;;;;;;;;;;;;;;5090377;28;19908;-79
2022/05/21 09:28:01;;;;;;;;;;;;;;;;;;5102734;28;19923;-79
2022/05/21 09:30:48;;;;;;;;;;;;;;;;;;5099513;27;19916;-79
2022/05/21 09:33:34;;;;;;;;;;;;;;;;;;5088349;28;19908;-79
2022/05/21 09:36:22;;;;;;;;;;;;;;;;;;5073915;28;19912;-79
2022/05/21 09:39:08;;;;;;;;;;;;;;;;;;5089977;28;19909;-78
2022/05/21 09:41:55;;;;;;;;;;;;;;;;;;5092748;28;20394;-79
2022/05/21 09:47:47;;;;;;;;;;;;;;;;;;5090319;28;19912;-79
2022/05/21 09:50:33;;;;;;;;;;;;;;;;;;5090544;28;19927;-78
2022/05/21 09:53:19;;;;;;;;;;;;;;;;;;5092255;28;19908;-79
2022/05/21 09:56:06;;;;;;;;;;;;;;;;;;5092183;28;19938;-80
2022/05/21 09:58:53;;;;;;;;;;;;;;;;;;5089638;28;19916;-80
2022/05/21 10:01:44;;;;;;;;;;;;;;;;;;5084903;28;20368;-79
2022/05/21 10:04:31;;;;;;;;;;;;;;;;;;5087174;28;19919;-79
2022/05/21 10:10:58;;;;;;;;;;;;;;;;;;5090848;28;19908;-80
2022/05/21 10:13:29;;;;;;;;;;;;;;;;;;5091020;28;19908;-80
2022/05/21 10:16:15;;;;;;;;;;;;;;;;;;5087050;28;19912;-79
2022/05/21 10:19:05;;;;;;;;;;;;;;;;;;5090016;28;19923;-80
2022/05/21 10:21:52;;;;;;;;;;;;;;;;;;5094438;28;19912;-79
2022/05/21 10:24:38;;;;;;;;;;;;;;;;;;5082825;28;19908;-79
2022/05/21 10:27:25;;;;;;;;;;;;;;;;;;5090220;28;19908;-80
2022/05/21 10:30:11;;;;;;;;;;;;;;;;;;5084156;28;20346;-79
2022/05/21 10:32:58;;;;;;;;;;;;;;;;;;5084252;28;19928;-80
2022/05/21 10:35:44;;;;;;;;;;;;;;;;;;5089621;28;20503;-79
2022/05/21 10:38:31;;;;;;;;;;;;;;;;;;5087706;28;19912;-77
2022/05/21 10:41:17;;;;;;;;;;;;;;;;;;5088414;28;19912;-77
2022/05/21 10:44:04;;;;;;;;;;;;;;;;;;5087502;28;19926;-77
2022/05/21 10:46:53;;;;;;;;;;;;;;;;;;5088917;28;19916;-77
2022/05/21 10:49:39;;;;;;;;;;;;;;;;;;5097659;28;19916;-77
2022/05/21 10:52:26;;;;;;;;;;;;;;;;;;5085972;28;19919;-78
2022/05/21 10:55:12;;;;;;;;;;;;;;;;;;5088216;28;20283;-78
2022/05/21 10:57:59;;;;;;;;;;;;;;;;;;5086559;28;19912;-78
2022/05/21 11:00:45;;;;;;;;;;;;;;;;;;5087898;28;19916;-78
2022/05/21 11:03:32;;;;;;;;;;;;;;;;;;5089113;28;19915;-78
2022/05/21 11:06:18;;;;;;;;;;;;;;;;;;5084817;28;20482;-78
2022/05/21 11:09:05;;;;;;;;;;;;;;;;;;5081520;28;19913;-80
2022/05/21 11:11:51;;;;;;;;;;;;;;;;;;5083149;28;19916;-77
2022/05/21 11:14:38;;;;;;;;;;;;;;;;;;5084639;28;19916;-79
2022/05/21 11:17:24;;;;;;;;;;;;;;;;;;5082446;28;19915;-79
2022/05/21 11:20:11;;;;;;;;;;;;;;;;;;5086834;28;19916;-78
2022/05/21 11:22:58;;;;;;;;;;;;;;;;;;5086268;28;19908;-78
2022/05/21 11:25:45;;;;;;;;;;;;;;;;;;5082445;28;19919;-78
2022/05/21 11:28:32;;;;;;;;;;;;;;;;;;5083442;28;19946;-79
2022/05/21 11:37:19;;;;;;;;;;;;;;;;;;5081974;28;19929;-79
2022/05/21 11:37:31;;;;;;;;;;;;;;;;;;5087232;28;19913;-79
2022/05/21 11:40:17;;;;;;;;;;;;;;;;;;5089210;28;19915;-78
2022/05/21 11:43:04;;;;;;;;;;;;;;;;;;5086741;28;19915;-77
2022/05/21 11:45:50;;;;;;;;;;;;;;;;;;5101237;28;20450;-78
2022/05/21 11:48:37;;;;;;;;;;;;;;;;;;5083106;28;19915;-80
2022/05/21 11:51:24;;;;;;;;;;;;;;;;;;5082927;28;19928;-79
2022/05/21 11:54:10;;;;;;;;;;;;;;;;;;5088916;28;19915;-78
2022/05/21 11:56:57;;;;;;;;;;;;;;;;;;5087659;28;19911;-83
2022/05/21 11:59:43;;;;;;;;;;;;;;;;;;5092064;28;19911;-80
2022/05/21 12:02:30;;;;;;;;;;;;;;;;;;5089997;28;20280;-78
2022/05/21 12:05:16;;;;;;;;;;;;;;;;;;5079533;28;19912;-79
2022/05/21 12:08:03;;;;;;;;;;;;;;;;;;5084500;28;19912;-77
2022/05/21 12:10:49;;;;;;;;;;;;;;;;;;5100678;28;19939;-78
2022/05/21 12:13:36;;;;;;;;;;;;;;;;;;5084205;28;19912;-78
2022/05/21 12:16:24;;;;;;;;;;;;;;;;;;5084417;28;19915;-78
2022/05/21 12:19:10;;;;;;;;;;;;;;;;;;5091397;28;19998;-76
2022/05/21 12:21:57;;;;;;;;;;;;;;;;;;5091308;28;19912;-80
2022/05/21 12:24:43;;;;;;;;;;;;;;;;;;5089680;28;19920;-78
2022/05/21 12:27:30;;;;;;;;;;;;;;;;;;5089225;28;20343;-77
2022/05/21 12:30:16;;;;;;;;;;;;;;;;;;5050634;28;20345;-77
2022/05/21 12:33:10;;;;;;;;;;;;;;;;;;5050501;28;19919;-77
2022/05/21 12:35:59;;;;;;;;;;;;;;;;;;5040874;28;19984;-77
2022/05/21 12:38:46;;;;;;;;;;;;;;;;;;5054662;28;19909;-77
2022/05/21 12:41:35;;;;;;;;;;;;;;;;;;5051725;28;19940;-78
2022/05/21 12:44:22;;;;;;;;;;;;;;;;;;5041411;28;20328;-77
2022/05/21 12:47:08;;;;;;;;;;;;;;;;;;5050775;28;19915;-76
2022/05/21 12:49:55;;;;;;;;;;;;;;;;;;5042404;28;19916;-77
2022/05/21 12:52:41;;;;;;;;;;;;;;;;;;5037808;28;19920;-77
2022/05/21 12:55:28;;;;;;;;;;;;;;;;;;5050465;28;19908;-77
2022/05/21 12:58:14;;;;;;;;;;;;;;;;;;5054380;28;19908;-77
2022/05/21 13:01:01;;;;;;;;;;;;;;;;;;5048863;28;19912;-77
2022/05/21 13:03:47;;;;;;;;;;;;;;;;;;5039938;28;19909;-76
2022/05/21 13:06:34;;;;;;;;;;;;;;;;;;5051708;28;19916;-76
2022/05/21 13:09:20;;;;;;;;;;;;;;;;;;5059080;28;19920;-76
2022/05/21 13:12:07;;;;;;;;;;;;;;;;;;5052062;28;19917;-77
2022/05/21 13:14:53;;;;;;;;;;;;;;;;;;5066553;28;19913;-76
2022/05/21 13:17:40;;;;;;;;;;;;;;;;;;5053242;28;20250;-77
2022/05/21 13:20:26;;;;;;;;;;;;;;;;;;5057715;28;19913;-77
2022/05/21 13:23:13;;;;;;;;;;;;;;;;;;5051358;28;19913;-74
2022/05/21 13:25:59;;;;;;;;;;;;;;;;;;5045349;28;20269;-75
2022/05/21 13:28:46;;;;;;;;;;;;;;;;;;5048567;28;20257;-76
2022/05/21 13:31:32;;;;;;;;;;;;;;;;;;5061375;28;19928;-76
2022/05/21 13:34:19;;;;;;;;;;;;;;;;;;5048481;28;19917;-77
2022/05/21 13:37:07;;;;;;;;;;;;;;;;;;5040031;28;20384;-76
2022/05/21 13:39:53;;;;;;;;;;;;;;;;;;5049057;28;19919;-77
2022/05/21 13:42:40;;;;;;;;;;;;;;;;;;5049980;28;19932;-76
2022/05/21 13:45:28;;;;;;;;;;;;;;;;;;5048265;28;19917;-78
2022/05/21 13:48:14;;;;;;;;;;;;;;;;;;5053459;28;19919;-76
2022/05/21 13:51:01;;;;;;;;;;;;;;;;;;5050771;28;19916;-78
2022/05/21 13:53:48;;;;;;;;;;;;;;;;;;5047288;28;19924;-77
2022/05/21 13:56:35;;;;;;;;;;;;;;;;;;5043886;28;19908;-77
2022/05/21 13:59:21;;;;;;;;;;;;;;;;;;5046704;28;20353;-79
2022/05/21 14:02:08;;;;;;;;;;;;;;;;;;5054839;28;19919;-79
2022/05/21 14:04:55;;;;;;;;;;;;;;;;;;5062193;28;20293;-80
2022/05/21 14:07:41;;;;;;;;;;;;;;;;;;5052224;28;20274;-80
2022/05/21 14:10:28;;;;;;;;;;;;;;;;;;5052603;28;19927;-80
2022/05/21 14:13:14;;;;;;;;;;;;;;;;;;5054054;28;19909;-79
2022/05/21 14:16:01;;;;;;;;;;;;;;;;;;5056814;28;19913;-79
2022/05/21 14:18:47;;;;;;;;;;;;;;;;;;5053678;28;19931;-79
2022/05/21 14:21:34;;;;;;;;;;;;;;;;;;5054652;28;19920;-79
2022/05/21 14:24:20;;;;;;;;;;;;;;;;;;5050670;28;19916;-79
2022/05/21 14:27:07;;;;;;;;;;;;;;;;;;5036075;28;19916;-79
2022/05/21 14:29:53;;;;;;;;;;;;;;;;;;5057371;28;19924;-75
2022/05/21 14:32:40;;;;;;;;;;;;;;;;;;5067242;28;19932;-77
2022/05/21 14:35:26;;;;;;;;;;;;;;;;;;5065900;28;20600;-76
2022/05/21 14:38:13;;;;;;;;;;;;;;;;;;5055530;28;19912;-79
2022/05/21 14:40:59;;;;;;;;;;;;;;;;;;5065383;28;20394;-77
2022/05/21 14:43:46;;;;;;;;;;;;;;;;;;5060462;28;19936;-77
2022/05/21 14:49:38;;;;;;;;;;;;;;;;;;5068004;28;19915;-77
2022/05/21 14:55:29;;;;;;;;;;;;;;;;;;5067905;28;19927;-77
2022/05/21 14:58:16;;;;;;;;;;;;;;;;;;5074637;28;20446;-77
2022/05/21 15:01:02;;;;;;;;;;;;;;;;;;5069596;28;19909;-77
2022/05/21 15:03:49;;;;;;;;;;;;;;;;;;5063109;28;20360;-77
2022/05/21 15:06:38;;;;;;;;;;;;;;;;;;5066473;28;19917;-77
2022/05/21 15:09:24;;;;;;;;;;;;;;;;;;5058416;28;20340;-77
2022/05/21 15:12:10;;;;;;;;;;;;;;;;;;5064591;28;19924;-77
2022/05/21 15:14:57;;;;;;;;;;;;;;;;;;5080106;28;19914;-78
2022/05/21 15:17:44;;;;;;;;;;;;;;;;;;5056234;28;20288;-77
2022/05/21 15:20:30;;;;;;;;;;;;;;;;;;5069193;28;19912;-77
2022/05/21 15:23:17;;;;;;;;;;;;;;;;;;5052623;28;19909;-76
2022/05/21 15:26:03;;;;;;;;;;;;;;;;;;5073808;28;19912;-76
2022/05/21 15:28:50;;;;;;;;;;;;;;;;;;5079386;28;19947;-76
2022/05/21 15:31:36;;;;;;;;;;;;;;;;;;5065868;28;19916;-76
2022/05/21 15:34:23;;;;;;;;;;;;;;;;;;5087124;28;19922;-75
2022/05/21 15:37:09;;;;;;;;;;;;;;;;;;5072166;28;19912;-77
2022/05/21 15:39:56;;;;;;;;;;;;;;;;;;5060761;28;19939;-76
2022/05/21 15:42:44;;;;;;;;;;;;;;;;;;5068395;28;20372;-77
2022/05/21 15:45:31;;;;;;;;;;;;;;;;;;5070130;28;19919;-77
2022/05/21 15:48:17;;;;;;;;;;;;;;;;;;5081851;28;20399;-77
2022/05/21 15:51:04;;;;;;;;;;;;;;;;;;5072273;28;19927;-77
2022/05/21 15:53:50;;;;;;;;;;;;;;;;;;5060955;28;19916;-76
2022/05/21 15:56:37;;;;;;;;;;;;;;;;;;5071547;28;19920;-76
2022/05/21 15:59:24;;;;;;;;;;;;;;;;;;5072946;28;19923;-76
2022/05/21 16:02:11;;;;;;;;;;;;;;;;;;5070289;28;19939;-76
2022/05/21 16:04:57;;;;;;;;;;;;;;;;;;5068856;28;19915;-77
2022/05/21 16:07:45;;;;;;;;;;;;;;;;;;5070526;28;20353;-76
2022/05/21 16:10:32;;;;;;;;;;;;;;;;;;5072789;28;19913;-76
2022/05/21 16:13:19;;;;;;;;;;;;;;;;;;5071563;28;19945;-77
2022/05/21 16:16:06;;;;;;;;;;;;;;;;;;5086023;28;19932;-77
2022/05/21 16:18:53;;;;;;;;;;;;;;;;;;5041868;28;20375;-78
2022/05/21 16:21:40;;;;;;;;;;;;;;;;;;5071315;28;20276;-77
2022/05/21 16:24:26;;;;;;;;;;;;;;;;;;5062224;28;19920;-77
2022/05/21 16:27:20;;;;;;;;;;;;;;;;;;5068327;28;19915;-77
2022/05/21 16:30:06;;;;;;;;;;;;;;;;;;5063749;28;20331;-77
2022/05/21 16:32:53;;;;;;;;;;;;;;;;;;5060673;28;19923;-77
2022/05/21 16:35:41;;;;;;;;;;;;;;;;;;5070311;28;19909;-76
2022/05/21 16:38:28;;;;;;;;;;;;;;;;;;5064268;28;19908;-77
2022/05/21 16:41:14;;;;;;;;;;;;;;;;;;5071028;28;19916;-77
2022/05/21 16:44:01;;;;;;;;;;;;;;;;;;5072869;28;19913;-76
2022/05/21 16:46:47;;;;;;;;;;;;;;;;;;5071463;28;19995;-77
2022/05/21 16:49:34;;;;;;;;;;;;;;;;;;5063269;28;19917;-76
2022/05/21 16:52:22;;;;;;;;;;;;;;;;;;5065819;28;19920;-77
2022/05/21 16:55:09;;;;;;;;;;;;;;;;;;5068483;28;20387;-77
2022/05/21 16:57:55;;;;;;;;;;;;;;;;;;5064751;28;19920;-77
2022/05/21 17:00:42;;;;;;;;;;;;;;;;;;5070337;28;19912;-77
2022/05/21 17:03:29;;;;;;;;;;;;;;;;;;5069237;28;19909;-77
2022/05/21 17:06:16;;;;;;;;;;;;;;;;;;5083982;28;20423;-77
2022/05/21 17:09:03;;;;;;;;;;;;;;;;;;5068881;28;19908;-77
2022/05/21 17:11:50;;;;;;;;;;;;;;;;;;5060373;28;19923;-77
2022/05/21 17:14:36;;;;;;;;;;;;;;;;;;5066126;28;19913;-77
2022/05/21 17:17:23;;;;;;;;;;;;;;;;;;5071515;28;19924;-78
2022/05/21 17:20:10;;;;;;;;;;;;;;;;;;5063641;28;19916;-77
2022/05/21 17:22:59;;;;;;;;;;;;;;;;;;5066173;28;20285;-77
2022/05/21 17:25:46;;;;;;;;;;;;;;;;;;5069830;28;19938;-77
2022/05/21 17:31:38;;;;;;;;;;;;;;;;;;5069794;28;19917;-78
2022/05/21 17:34:24;;;;;;;;;;;;;;;;;;5070047;28;19920;-77
2022/05/21 17:37:11;;;;;;;;;;;;;;;;;;5075297;28;20368;-77
2022/05/21 17:39:57;;;;;;;;;;;;;;;;;;5085655;28;19915;-77
2022/05/21 17:42:45;;;;;;;;;;;;;;;;;;5060710;28;20749;-78
2022/05/21 17:45:31;;;;;;;;;;;;;;;;;;5070673;28;19912;-77
2022/05/21 17:48:19;;;;;;;;;;;;;;;;;;5070122;28;19915;-78
2022/05/21 17:51:06;;;;;;;;;;;;;;;;;;5070026;28;19921;-77
2022/05/21 17:53:52;;;;;;;;;;;;;;;;;;5077062;28;19915;-77
2022/05/21 17:56:44;;;;;;;;;;;;;;;;;;5071463;28;20360;-77
2022/05/21 17:59:31;;;;;;;;;;;;;;;;;;5055356;28;19916;-77
2022/05/21 18:02:17;;;;;;;;;;;;;;;;;;5070196;28;19916;-77
2022/05/21 18:05:04;;;;;;;;;;;;;;;;;;5073016;28;19912;-76
2022/05/21 18:07:54;;;;;;;;;;;;;;;;;;5074497;28;20010;-78
2022/05/21 18:10:40;;;;;;;;;;;;;;;;;;5066017;28;19912;-78
2022/05/21 18:13:27;;;;;;;;;;;;;;;;;;5072933;28;19913;-76
2022/05/21 18:19:18;;;;;;;;;;;;;;;;;;5069068;28;20360;-76
2022/05/21 18:22:05;;;;;;;;;;;;;;;;;;5082355;28;19923;-78
2022/05/21 18:24:51;;;;;;;;;;;;;;;;;;5072049;28;19913;-77
2022/05/21 18:27:38;;;;;;;;;;;;;;;;;;5072006;28;19912;-76
2022/05/21 18:30:24;;;;;;;;;;;;;;;;;;5046248;28;19925;-78
2022/05/21 18:33:11;;;;;;;;;;;;;;;;;;5050178;28;19948;-82
2022/05/21 18:35:57;;;;;;;;;;;;;;;;;;5041092;28;19920;-78
2022/05/21 18:38:44;;;;;;;;;;;;;;;;;;5051128;28;20365;-77
2022/05/21 18:41:30;;;;;;;;;;;;;;;;;;5053123;28;19909;-77
2022/05/21 18:44:17;;;;;;;;;;;;;;;;;;5052362;28;19945;-76
2022/05/21 18:47:03;;;;;;;;;;;;;;;;;;5052825;28;19987;-78
2022/05/21 18:49:50;;;;;;;;;;;;;;;;;;5051537;28;19923;-78
2022/05/21 18:52:37;;;;;;;;;;;;;;;;;;5051782;28;19921;-78
2022/05/21 18:55:24;;;;;;;;;;;;;;;;;;5049941;28;19920;-80
2022/05/21 18:58:12;;;;;;;;;;;;;;;;;;5051303;28;19943;-81
2022/05/21 19:00:58;;;;;;;;;;;;;;;;;;5057138;28;19912;-78
2022/05/21 19:03:45;;;;;;;;;;;;;;;;;;5052698;28;20306;-78
2022/05/21 19:06:32;;;;;;;;;;;;;;;;;;5051103;28;19916;-78
2022/05/21 19:09:18;;;;;;;;;;;;;;;;;;5046967;28;19928;-78
2022/05/21 19:12:05;;;;;;;;;;;;;;;;;;5045825;28;19924;-80
2022/05/21 19:14:51;;;;;;;;;;;;;;;;;;5054212;28;19912;-77
2022/05/21 19:17:38;;;;;;;;;;;;;;;;;;5051769;28;19916;-77
2022/05/21 19:20:24;;;;;;;;;;;;;;;;;;5043840;28;19920;-79
2022/05/21 19:23:11;;;;;;;;;;;;;;;;;;5069067;28;19924;-80
2022/05/21 19:25:57;;;;;;;;;;;;;;;;;;5070319;28;19909;-80
2022/05/21 19:28:44;;;;;;;;;;;;;;;;;;5092403;28;19972;-80
2022/05/21 19:31:30;;;;;;;;;;;;;;;;;;5100442;28;19912;-82
2022/05/21 19:34:17;;;;;;;;;;;;;;;;;;5097003;28;19923;-80
2022/05/21 19:37:04;;;;;;;;;;;;;;;;;;5096673;28;20283;-79
2022/05/21 19:42:55;;;;;;;;;;;;;;;;;;5089687;28;19923;-78
2022/05/21 19:45:42;;;;;;;;;;;;;;;;;;5096654;28;19908;-79
2022/05/21 19:48:28;;;;;;;;;;;;;;;;;;5090995;28;19919;-76